Terminal Aerodrome Forecast
Issued by NWS

Home | Current Version | Previous Version | Text Only | Print | Product List | Glossary On
Versions: 1 2 3 4 5 6 7 8 9 10 11 12 13 14
111
FTPA31 PHFO 271735
TAFHLI
TAF
PHLI 271735Z 2718/2818 05013KT P6SM VCSH FEW025 SCT040
     FM281200 05013KT P6SM -SHRA SCT025 BKN040=

USA.gov is the U.S. government's official web portal to all federal, state and local government web resources and services.